ASIAQ
Weather Now
GREENLAND SURVEY
Sorting:
| Location |
Updated [WGT/WGST] |
Temperature [°C] |
Wind [m/s] |
Air pressure [hPa] |
Relative humidity [%] |
Precipitation [mm] |
| Present | Wind chill | Speed | Max |
| Qaanaaq | 06.09 21:00 | 2,7 | 1,1 | 1,7 ⇘ | 1,9 | 989 | 89 | 0,9 |
| Kitsissut | 06.09 21:00 | 1,7 | -2,9 | 5,1 ⇘ | 6,7 | 989 | 100 | n/a |
| Kitsissorsuit | 06.09 21:00 | 6,5 | 0,4 | 16,0 ⇖ | 19,0 | 990 | 82 | n/a |
| Upernavik | 06.09 21:00 | 8,7 | 3,7 | 13,9 ⇗ | 20,1 | 983 | 66 | 0,0 |
| Qaarsut | 06.09 21:00 | 11,9 | 8,3 | 12,0 ⇖ | 16,6 | 992 | 51 | 0,1 |
| Nuussuaq | 06.09 21:00 | 11,2 | 6,8 | 16,5 ⇖ | 20,1 | 995 | 59 | n/a |
| Qeqertarsuaq | 06.09 21:00 | 10,5 | 9,9 | 1,9 ⇙ | 4,7 | 1004 | 56 | 0,8 |
| Ilulissat | 06.09 21:00 | 12,7 | 9,9 | 9,0 ⇐ | 11,5 | 1002 | 47 | 0,0 |
| Qasigiannguit | 06.09 21:10 | n/a | n/a | 4,4 ⇖ | 11,2 | 1003 | 39 | n/a |
| Aasiaat | 06.09 21:00 | 11,3 | 10,3 | 2,7 ⇑ | 3,8 | 1000 | 60 | 0,0 |
| Kangerlussuaq | 06.09 21:00 | 11,2 | 8,9 | 5,7 ⇙ | 7,3 | 1001 | 43 | n/a |
| Sisimiut | 06.09 21:00 | 9,9 | 7,4 | 5,1 ⇐ | 9,8 | 1006 | 62 | 0,0 |
| Maniitsoq | 06.09 21:00 | 8,6 | 5,9 | 4,8 ⇐ | 6,9 | 1007 | 79 | 0,0 |
| Sioralik | 06.09 21:00 | 7,6 | 4,3 | 5,7 ⇑ | 6,7 | 1010 | 89 | n/a |
| Niaqornaa | 06.09 20:00 | 11,0 | n/a | 0,4 ⇐ | 0,8 | 1004 | 28 | n/a |
| Qeqertannguaq | 06.09 21:10 | n/a | n/a | 1,1 ⇑ | 1,5 | n/a | 46 | n/a |
| Kapisillit | 06.09 21:00 | 10,5 | 10,3 | 1,4 ⇑ | 2,8 | 1002 | 47 | 0,0 |
| Kuanninnguit | 06.09 21:00 | 9,0 | 7,9 | 1,3 ⇐ | 3,0 | 1004 | 67 | n/a |
| Nuuk City | 06.09 21:10 | n/a | n/a | 5,4 ⇑ | 6,6 | 1001 | 70 | n/a |
| Ukiiviit | 06.09 21:00 | 6,3 | 4,0 | 3,1 ⇘ | 3,6 | 1010 | 94 | n/a |
| Paamiut | 06.09 21:00 | 6,8 | 4,0 | 4,2 ⇒ | 6,1 | 1007 | 79 | 0,0 |
| Narsarsuaq | 06.09 21:00 | 8,3 | 7,4 | 1,8 ⇙ | 2,1 | 1006 | 57 | n/a |
| Narsaq | 06.09 21:00 | 7,0 | n/a | 1,0 ⇘ | 2,1 | 1007 | 78 | 0,0 |
| Nunarsuit | 06.09 21:00 | 6,1 | 1,7 | 7,7 ⇘ | 9,3 | 1007 | 93 | n/a |
| Upernaviarsuk | 06.09 21:00 | 8,2 | 7,4 | 1,8 ⇑ | 4,2 | 1009 | 82 | n/a |
| Qaqortoq | 06.09 21:00 | 7,6 | 5,8 | 2,9 ⇗ | 4,4 | 1003 | 79 | 0,0 |
| Angisoq | 06.09 21:00 | 4,7 | -1,0 | 10,8 ⇒ | 13,4 | 1007 | 95 | n/a |
| Prins Christian Sund | 06.09 21:00 | 14,0 | 12,7 | 4,6 ⇒ | 7,7 | 994 | 32 | n/a |
| Nanortalik | 06.09 21:00 | 7,8 | 4,7 | 5,3 ⇙ | 7,2 | 1008 | 69 | n/a |
| Ikermiuarsuk | 06.09 21:00 | 7,1 | 5,3 | 2,6 ⇓ | 3,6 | 999 | 67 | n/a |
| Ikermit | 06.09 21:00 | 11,0 | 7,4 | 10,8 ⇘ | 13,4 | 992 | 36 | n/a |
| Kulusuk | 06.09 21:00 | 7,8 | n/a | 0,4 ⇗ | 2,4 | 997 | 52 | n/a |
| Tasiilaq | 06.09 21:00 | 7,5 | n/a | 0,3 ⇒ | 2,1 | 995 | 55 | 0,0 |
| Aputiteeq | 06.09 21:00 | 6,8 | 3,3 | 5,7 ⇙ | 7,7 | 999 | 57 | n/a |
| Ittoqqortoormiit | 06.09 21:00 | 11,5 | 10,0 | 3,6 ⇙ | 4,2 | 991 | 37 | n/a |
| Nerlerit Inaat | 06.09 21:00 | 6,9 | n/a | 1,0 ⇑ | 2,0 | 999 | 48 | n/a |
| Daneborg | 06.09 21:00 | 4,3 | 0,4 | 5,0 ⇒ | 6,0 | 999 | 68 | n/a |
| Zackenberg | 06.09 12:00 | n/a | n/a | 3,9 ⇖ | 4,7 | n/a | n/a | n/a |
| Danmarkshavn | 06.09 21:00 | n/a | n/a | n/a | 4,0 | n/a | n/a | n/a |
| Henrik Krøyer Holme | 06.09 21:00 | -5,9 | -11,2 | 4,0 ⇖ | 7,0 | 1000 | 97 | n/a |
| Station Nord | 06.09 21:00 | -5,7 | n/a | 1,0 ⇑ | 2,0 | 997 | 91 | n/a |
| Kap Morris Jesup | 06.09 21:00 | -8,7 | n/a | n/a | n/a | 999 | 93 | n/a |
Advanced version ⤻
Data source - Operated by - Disclaimer ▼